Aeroporto :
LOGIN :

Iscrizione | Disclaimer

   EN    FR    IT 

 










Sommario :    VFR   VFR Marginale   IFR   IFR Intensivo   IFR Molto Intensivo
Visibilità : 
Base nubi : 
>= 8 km
>= 3000ft
5 / 8 km
1000 / 3000 ft
1500m / 5 km
500 / 1000 ft
800 / 1500m
200 / 500 ft
< 800m
< 200 ft
Simboli :   Temporali  Nebbia  Neve Forte  Precipitazioni Forti  Vento > 20 kt
SIGMETs :   Varie  Temporali  Ghiacco  Turbolenza  Onda orograficha  Ceneri Vulcaniche






- Altitudine del aeroporto : 1187 ft


LIBV - Gioia del Colle Bari

ULTIMO METAR :
  • 231255Z 02006KT CAVOK 25/10 Q1020 RMK SKC VIS MIN 9999 WIND THR32 03006KT WIND THR14 03006KT BLU

METARs OBSOLETI :
  • 231155Z 36003KT CAVOK 25/10 Q1020 RMK SKC VIS MIN 9999 WIND THR32 03005KT WIND THR14 03005KT BLU
  • 231055Z 04004KT 9000 NSC 23/12 Q1021 RMK SKC VIS MIN 9000 WIND THR32 04003KT WIND THR14 04003KT BLU

TAF TAF LIBV
Valido dal 23 a 12 ore il 23 a 21 ore UTC


231100Z 2312/2321 18008KT CAVOK
BECMG 2318/2320 5000 BR NSC



MetMap, La meteo Aeronautica in un colpo d'occhio ! - Copyright ORBIFLY Dicembre 2007 - Disclaimer

ORBIFLY MET'MAP TEAM :

Programmazione e sviluppo : Alexandra Zaïnal
Concezione e sviluppo : Baudouin d'Aumeries
Co-Programmazione e sviluppo : Marc-Olivier Méhu
Supporto tecnico e logistico : Manuel Goepfert
Aiuto per la traduzione : Arnaldo La Scala

Contatto : metmap@orbifly.com




FONTI E CREDITI :

   NOAA